Terminal Aerodrome Forecast
Issued by NWS Charleston, WV

Home | Current Version | Previous Version | Text Only | Print | Product List | Glossary On
Versions: 1 2 3 4 5 6 7 8 9 10 11 12 13 14 15 16 17 18 19 20 21 22 23 24 25 26 27
000
FTUS41 KRLX 071133
TAFCRW
TAF
KCRW 071133Z 0712/0812 18004KT 6SM HZ SCT030
     FM071300 21006KT P6SM VCSH BKN030
     FM071500 23010G17KT P6SM BKN035
     FM072000 23010G17KT P6SM VCTS BKN040CB BKN100
     FM072200 19005KT 4SM TSRA BR BKN035CB BKN080
     FM080300 17004KT 3SM SHRA BR VCTS BKN040CB BKN080=

USA.gov is the U.S. government's official web portal to all federal, state and local government web resources and services.